DW7076 Floda SE current weather conditions

sailwx.info

Wind from 237 at 2 knots gusting 7

Air temperature 26.7° C
Dewpoint 17.4° C

Last reported at 2014-Jul-28 13:56 UTC.
Time now 2014-Jul-28 14:31 UTC

Location: N 57°49' E 012°21'.
View on Google Maps.

See reports from other nearby stations

  
Tides and Currents Weather Stations Pressure Air Temp Water Temp Dewpoint Dewpoint Depression Visibility Wind Speed Wind Dir Waves Ship Positions
date/time (UTC)wind fromknots sea level pressurealtimeterstation pressurevisibilityair tempwater tempwave heightnotes
2014-Jul-28 13:56 237 2 gusting 7 26.7
2014-Jul-28 13:46 184 1 gusting 7 27.2
2014-Jul-28 13:36 190 2 gusting 10 26.7
2014-Jul-28 13:26 230 1 gusting 8 26.1
2014-Jul-28 13:16 301 1 gusting 6 26.1
2014-Jul-28 13:06 313 0 gusting 6 26.1
2014-Jul-28 12:56 307 1 gusting 4 25.6
2014-Jul-28 12:46 262 1 gusting 6 25.6
2014-Jul-28 12:36 340 25.6
2014-Jul-28 12:26 328 0 gusting 4 25.6
2014-Jul-28 12:16 332 1 gusting 4 25.6
2014-Jul-28 12:06 338 1 gusting 4 25.6
2014-Jul-28 11:56 321 4 gusting 8 26.1
2014-Jul-28 11:46 270 1 gusting 6 25.6
2014-Jul-28 11:36 015 0 gusting 6 25.0
2014-Jul-28 11:26 325 4 gusting 7 25.6
2014-Jul-28 11:16 329 0 gusting 2 25.6
2014-Jul-28 11:06 329 2 gusting 5 25.6
2014-Jul-28 10:56 175 0 gusting 4 25.0
2014-Jul-28 10:46 243 0 gusting 2 25.6
2014-Jul-28 10:36 276 1 gusting 6 25.6
2014-Jul-28 10:26 198 0 gusting 6 26.1
2014-Jul-28 10:16 254 2 gusting 7 26.1
2014-Jul-28 10:06 338 2 gusting 6 26.1
2014-Jul-28 09:56 321 0 gusting 2 25.6
2014-Jul-28 09:46 323 24.4
2014-Jul-28 09:36 267 1 gusting 4 24.4
2014-Jul-28 09:26 334 3 gusting 8 25.6
2014-Jul-28 09:16 313 1 gusting 5 26.1
2014-Jul-28 09:06 151 1 gusting 6 25.6
2014-Jul-28 08:56 177 1 gusting 6 24.4
2014-Jul-28 08:46 289 0 gusting 4 23.9
2014-Jul-28 08:36 334 1 gusting 2 23.9
2014-Jul-28 08:26 175 0 gusting 2 23.3
2014-Jul-28 08:16 307 1 gusting 2 23.3
2014-Jul-28 08:06 304 1 gusting 4 22.8
2014-Jul-28 07:56 288 0 gusting 2 22.8
2014-Jul-28 07:46 186 0 gusting 2 22.8
2014-Jul-28 07:36 333 0 gusting 2 22.8
2014-Jul-28 07:26 300 0 gusting 2 22.8
2014-Jul-28 07:16 181 21.7
2014-Jul-28 07:06 233 1 gusting 2 21.1
2014-Jul-28 06:56 333 1 gusting 2 21.1
2014-Jul-28 06:46 195 2 gusting 4 20.6
2014-Jul-28 06:36 168 20.6
2014-Jul-28 06:26 168 20.0
2014-Jul-28 06:16 168 19.4
2014-Jul-28 06:06 168 18.9
2014-Jul-28 05:56 168 17.8
2014-Jul-28 05:46 168 17.2
2014-Jul-28 05:36 168 16.7
2014-Jul-28 05:26 168 16.7
2014-Jul-28 05:16 168 16.1
2014-Jul-28 05:06 168 16.1
2014-Jul-28 04:56 168 16.1
2014-Jul-28 04:46 168 16.1
2014-Jul-28 04:36 168 16.1
2014-Jul-28 04:26 168 16.1
2014-Jul-28 04:16 168 16.1
2014-Jul-28 04:06 168 15.6
2014-Jul-28 03:56 168 15.6
2014-Jul-28 03:46 168 15.6
2014-Jul-28 03:36 168 15.6
2014-Jul-28 03:26 168 15.6
2014-Jul-28 03:16 168 15.6
2014-Jul-28 03:06 168 16.1
2014-Jul-28 02:56 168 16.1
2014-Jul-28 02:46 168 16.1
2014-Jul-28 02:36 168 16.1
2014-Jul-28 02:26 168 16.1
2014-Jul-28 02:16 168 16.1
2014-Jul-28 02:06 168 16.1
2014-Jul-28 01:56 168 16.1
2014-Jul-28 01:46 168 16.1
2014-Jul-28 01:36 168 16.1
2014-Jul-28 01:26 168 16.1
2014-Jul-28 01:16 168 16.7
2014-Jul-28 01:06 168 16.7
2014-Jul-28 00:56 168 16.7
2014-Jul-28 00:46 168 16.7
2014-Jul-28 00:36 168 16.7
2014-Jul-28 00:26 168 16.7
2014-Jul-28 00:16 168 16.7
2014-Jul-28 00:06 168 16.7
2014-Jul-27 23:56 168 16.7
2014-Jul-27 23:46 168 17.2
2014-Jul-27 23:36 168 17.2
2014-Jul-27 23:26 168 17.2
2014-Jul-27 23:16 168 17.2
2014-Jul-27 23:06 168 17.2
2014-Jul-27 22:56 168 17.2
2014-Jul-27 22:46 168 17.2
2014-Jul-27 22:36 168 17.2
2014-Jul-27 22:26 168 17.2
2014-Jul-27 22:16 168 17.8
2014-Jul-27 22:06 168 17.8
2014-Jul-27 21:56 168 17.8
2014-Jul-27 21:46 168 17.8
2014-Jul-27 21:36 168 17.8
2014-Jul-27 21:26 168 18.3
2014-Jul-27 21:16 168 18.3
2014-Jul-27 21:06 168 18.3
2014-Jul-27 20:56 168 18.3
2014-Jul-27 20:46 168 0 gusting 2 18.3
2014-Jul-27 20:36 167 0 gusting 2 18.9
2014-Jul-27 20:26 167 18.9
2014-Jul-27 20:16 167 18.9
2014-Jul-27 20:06 167 19.4
2014-Jul-27 19:56 167 19.4
2014-Jul-27 19:46 167 20.0
2014-Jul-27 19:36 167 20.0
2014-Jul-27 19:26 167 20.6
2014-Jul-27 19:16 167 0 gusting 0 20.6
2014-Jul-27 19:06 167 0 gusting 2 21.1
2014-Jul-27 18:56 167 0 gusting 2 21.1
2014-Jul-27 18:46 202 1 gusting 4 21.7
2014-Jul-27 18:36 154 0 gusting 6 21.7
2014-Jul-27 18:26 094 22.2
2014-Jul-27 18:16 144 1 gusting 10 22.8
2014-Jul-27 18:06 167 1 gusting 6 23.3
2014-Jul-27 17:56 107 0 gusting 4 23.3
2014-Jul-27 17:46 086 0 gusting 2 23.3
2014-Jul-27 17:36 078 0 gusting 4 23.3
2014-Jul-27 17:26 155 0 gusting 5 23.3
2014-Jul-27 17:16 139 0 gusting 4 23.9
2014-Jul-27 17:06 196 24.4
2014-Jul-27 16:56 047 0 gusting 2 24.4
2014-Jul-27 16:46 112 0 gusting 5 24.4
2014-Jul-27 16:36 102 0 gusting 2 24.4
2014-Jul-27 16:26 166 25.0
2014-Jul-27 16:16 081 0 gusting 6 25.0
2014-Jul-27 16:06 114 0 gusting 4 25.6
2014-Jul-27 15:56 142 0 gusting 5 25.6
2014-Jul-27 15:46 106 1 gusting 6 25.0
2014-Jul-27 15:36 128 1 gusting 6 25.6
2014-Jul-27 15:26 067 1 gusting 2 25.6
2014-Jul-27 15:16 166 0 gusting 2 25.6
2014-Jul-27 15:06 150 25.6
2014-Jul-27 14:56 125 1 gusting 2 26.1
2014-Jul-27 14:46 117 1 gusting 6 26.1
2014-Jul-27 14:36 111 2 gusting 6 26.1
2014-Jul-27 14:26 075 0 gusting 5 26.1
2014-Jul-27 14:16 073 0 gusting 4 25.0
2014-Jul-27 14:06 109 0 gusting 5 23.9
2014-Jul-27 13:56 098 1 gusting 4 24.4
2014-Jul-27 13:46 070 2 gusting 6 26.1
2014-Jul-27 13:36 075 1 gusting 5 26.1
2014-Jul-27 13:26 059 2 gusting 6 26.7
2014-Jul-27 13:16 105 0 gusting 2 26.1
2014-Jul-27 13:06 108 0 gusting 2 26.1
2014-Jul-27 12:56 132 0 gusting 4 26.1
2014-Jul-27 12:46 096 0 gusting 2 26.7
2014-Jul-27 12:36 167 26.7
2014-Jul-27 12:26 167 26.1
2014-Jul-27 12:16 167 27.2
2014-Jul-27 12:06 167 27.2
2014-Jul-27 11:56 167 26.7
2014-Jul-27 11:46 167 0 gusting 6 26.7
2014-Jul-27 11:36 188 0 gusting 2 26.7
2014-Jul-27 11:26 182 0 gusting 5 26.7
2014-Jul-27 11:16 183 2 gusting 6 26.7
2014-Jul-27 11:06 171 0 gusting 6 27.8
2014-Jul-27 10:56 178 0 gusting 2 27.8
2014-Jul-27 10:46 136 27.2
2014-Jul-27 10:36 126 0 gusting 2 27.2
2014-Jul-27 10:26 194 0 gusting 2 27.2
2014-Jul-27 10:16 057 0 gusting 6 27.2
2014-Jul-27 10:06 179 0 gusting 4 27.2
2014-Jul-27 09:56 143 0 gusting 5 26.7
2014-Jul-27 09:46 195 2 gusting 6 25.6
2014-Jul-27 09:36 155 1 gusting 5 26.1
2014-Jul-27 09:26 160 0 gusting 4 26.1
2014-Jul-27 09:16 156 0 gusting 1 25.6
2014-Jul-27 09:06 156 0 gusting 2 25.0
2014-Jul-27 08:56 156 0 gusting 2 24.4
2014-Jul-27 08:46 062 0 gusting 2 23.9
2014-Jul-27 08:36 134 23.3
2014-Jul-27 08:26 134 0 gusting 2 23.3
2014-Jul-27 08:16 172 1 gusting 4 22.2
2014-Jul-27 08:06 108 22.2
2014-Jul-27 07:56 108 21.7
2014-Jul-27 07:46 108 21.1
2014-Jul-27 07:36 108 21.1
2014-Jul-27 07:26 108 20.0
2014-Jul-27 07:16 108 20.0
2014-Jul-27 07:06 188 19.4
2014-Jul-27 06:56 188 18.9
2014-Jul-27 06:46 188 18.9
2014-Jul-27 06:36 188 0 gusting 1 18.3
2014-Jul-27 06:26 188 18.3
2014-Jul-27 06:16 188 17.8
2014-Jul-27 06:06 188 17.8
2014-Jul-27 05:56 188 17.2
2014-Jul-27 05:46 188 17.2
2014-Jul-27 05:36 188 16.7
2014-Jul-27 05:26 188 16.7
2014-Jul-27 05:16 188 16.1
2014-Jul-27 05:06 188 16.1
2014-Jul-27 04:56 188 16.1
2014-Jul-27 04:46 188 16.1
2014-Jul-27 04:36 188 15.6
2014-Jul-27 04:26 188 15.6
2014-Jul-27 04:16 188 15.6
2014-Jul-27 04:06 188 15.6
2014-Jul-27 03:56 188 15.6
2014-Jul-27 03:46 188 15.6
2014-Jul-27 03:36 188 15.6
2014-Jul-27 03:26 188 15.6
2014-Jul-27 03:16 188 15.6
2014-Jul-27 03:06 188 16.1
2014-Jul-27 02:56 188 16.1
2014-Jul-27 02:46 188 16.1
2014-Jul-27 02:36 188 0 gusting 1 16.1
2014-Jul-27 02:26 188 16.1
2014-Jul-27 02:16 188 16.1
2014-Jul-27 02:06 188 0 gusting 0 16.1
2014-Jul-27 01:56 188 16.1
2014-Jul-27 01:46 188 16.1
2014-Jul-27 01:36 188 16.1
2014-Jul-27 01:26 188 16.1
2014-Jul-27 01:16 188 15.6
2014-Jul-27 01:06 188 15.6
2014-Jul-27 00:56 188 15.6
2014-Jul-27 00:46 188 15.6
2014-Jul-27 00:36 188 15.6
2014-Jul-27 00:26 188 15.6
2014-Jul-27 00:16 188 15.6
2014-Jul-27 00:06 188 15.6
2014-Jul-26 23:56 188 16.1
2014-Jul-26 23:46 188 16.1
2014-Jul-26 23:36 188 16.1
2014-Jul-26 23:26 188 0 gusting 1 16.1
2014-Jul-26 23:16 188 16.1
2014-Jul-26 23:06 188 16.1
2014-Jul-26 22:56 188 0 gusting 1 16.1
2014-Jul-26 22:46 188 0 gusting 0 16.1
2014-Jul-26 22:36 188 16.1
2014-Jul-26 22:26 188 16.7
2014-Jul-26 22:16 188 16.7
2014-Jul-26 22:06 188 16.7
2014-Jul-26 21:56 188 16.7
2014-Jul-26 21:46 188 16.7
2014-Jul-26 21:36 188 16.7
2014-Jul-26 21:26 188 16.7
2014-Jul-26 21:16 188 16.7
2014-Jul-26 21:06 188 16.7
2014-Jul-26 20:56 188 16.7
2014-Jul-26 20:46 188 16.7
2014-Jul-26 20:36 188 17.2
2014-Jul-26 20:26 188 17.2
2014-Jul-26 20:16 188 17.2
2014-Jul-26 20:06 188 17.8
2014-Jul-26 19:56 188 17.8
2014-Jul-26 19:46 188 17.8
2014-Jul-26 19:36 188 17.8
2014-Jul-26 19:26 188 0 gusting 0 18.3
2014-Jul-26 19:16 188 18.3
2014-Jul-26 19:06 188 18.3
2014-Jul-26 18:56 188 18.3
2014-Jul-26 18:46 188 18.9
2014-Jul-26 18:36 188 18.9
2014-Jul-26 18:26 188 18.9
2014-Jul-26 18:16 188 18.9
2014-Jul-26 18:06 188 18.9
2014-Jul-26 17:56 188 18.9
2014-Jul-26 17:46 188 18.3
2014-Jul-26 17:36 188 18.3
2014-Jul-26 17:26 188 18.3
2014-Jul-26 17:16 188 18.3
2014-Jul-26 17:06 188 18.3
2014-Jul-26 16:56 188 18.3
2014-Jul-26 16:46 188 18.3
2014-Jul-26 16:36 188 18.3
2014-Jul-26 16:26 188 18.3
2014-Jul-26 16:16 188 0 gusting 1 18.3
2014-Jul-26 16:06 188 18.3
2014-Jul-26 15:56 188 18.3
2014-Jul-26 15:46 188 17.8
2014-Jul-26 15:36 188 0 gusting 1 17.8
2014-Jul-26 15:26 188 17.2
2014-Jul-26 15:16 188 0 gusting 1 17.2
2014-Jul-26 15:06 188 0 gusting 2 17.2
2014-Jul-26 14:56 277 0 gusting 4 17.2
2014-Jul-26 14:46 203 17.2
2014-Jul-26 14:36 191 0 gusting 5 17.8
2014-Jul-26 14:26 254 1 gusting 8 17.8
2014-Jul-26 14:16 202 2 gusting 10 18.3
2014-Jul-26 14:06 098 4 gusting 13 18.3